Time;durP1;ratioP1;P1;durP2;ratioP2;P2;SDS_P1;SDS_P2;PMS_P1;PMS_P2;Temp;Humidity;BMP_temperature;BMP_pressure;BME280_temperature;BME280_humidity;BME280_pressure;Samples;Min_cycle;Max_cycle;Signal;HPM_P1;HPM_P2
2022/04/13 00:00:58;;;;;;;9.98;5.85;;;;;;;;;;6196420;28;20050;-79
2022/04/13 00:04:01;;;;;;;8.90;5.20;;;;;;;;;;6196138;28;20050;-81
2022/04/13 00:07:04;;;;;;;9.15;4.60;;;;;;;;;;6195340;28;20081;-80
2022/04/13 00:10:08;;;;;;;13.50;5.10;;;;;;;;;;6195275;28;20050;-81
2022/04/13 00:13:11;;;;;;;8.63;4.63;;;;;;;;;;6195260;28;20073;-79
2022/04/13 00:16:15;;;;;;;8.45;4.78;;;;;;;;;;6196252;28;20057;-84
2022/04/13 00:19:20;;;;;;;10.05;4.60;;;;;;;;;;6194459;28;20414;-82
2022/04/13 00:22:23;;;;;;;8.45;4.50;;;;;;;;;;6195551;28;20042;-81
2022/04/13 00:25:28;;;;;;;10.77;4.97;;;;;;;;;;6195379;28;20412;-82
2022/04/13 00:28:30;;;;;;;9.02;4.90;;;;;;;;;;6194998;28;20072;-81
2022/04/13 00:31:35;;;;;;;9.52;5.28;;;;;;;;;;6195358;28;20042;-80
2022/04/13 00:34:38;;;;;;;10.27;4.90;;;;;;;;;;6194443;28;20048;-82
2022/04/13 00:37:41;;;;;;;9.45;5.10;;;;;;;;;;6194215;28;20042;-83
2022/04/13 00:40:44;;;;;;;7.63;4.60;;;;;;;;;;6194083;28;20042;-84
2022/04/13 00:44:00;;;;;;;11.20;5.00;;;;;;;;;;6194291;28;20043;-79
2022/04/13 00:47:07;;;;;;;9.88;5.45;;;;;;;;;;6195070;28;20129;-79
2022/04/13 00:50:10;;;;;;;8.07;5.20;;;;;;;;;;6195106;28;20046;-82
2022/04/13 00:53:14;;;;;;;9.85;4.63;;;;;;;;;;6195214;28;20523;-82
2022/04/13 00:56:21;;;;;;;8.77;5.00;;;;;;;;;;6193436;28;20050;-79
2022/04/13 00:59:24;;;;;;;9.10;4.80;;;;;;;;;;6195468;28;20050;-79
2022/04/13 01:02:30;;;;;;;14.82;6.72;;;;;;;;;;6193312;28;20046;-76
2022/04/13 01:05:33;;;;;;;10.00;4.97;;;;;;;;;;6194282;28;20066;-79
2022/04/13 01:08:36;;;;;;;11.35;4.95;;;;;;;;;;6194948;28;20292;-77
2022/04/13 01:11:41;;;;;;;;;;;;;;;;;;6193936;28;20096;-79
2022/04/13 01:14:44;;;;;;;8.55;4.40;;;;;;;;;;6193775;28;20434;-79
2022/04/13 01:17:49;;;;;;;8.32;4.32;;;;;;;;;;6190050;28;20177;-79
2022/04/13 01:20:53;;;;;;;6.85;4.53;;;;;;;;;;6193410;28;20050;-79
2022/04/13 01:23:57;;;;;;;9.02;4.28;;;;;;;;;;6193811;28;20423;-79
2022/04/13 01:27:00;;;;;;;8.48;4.53;;;;;;;;;;6192339;28;20046;-78
2022/04/13 01:30:06;;;;;;;10.55;4.47;;;;;;;;;;6194384;28;20058;-79
2022/04/13 01:33:09;;;;;;;;;;;;;;;;;;6193207;28;20046;-78
2022/04/13 01:36:12;;;;;;;8.98;4.40;;;;;;;;;;6193734;28;19921;-78
2022/04/13 01:39:16;;;;;;;9.32;4.47;;;;;;;;;;6193534;28;20496;-79
2022/04/13 01:42:19;;;;;;;11.07;5.38;;;;;;;;;;6194105;28;20042;-78
2022/04/13 01:45:29;;;;;;;8.88;4.80;;;;;;;;;;6192500;28;20121;-79
2022/04/13 01:48:32;;;;;;;7.90;4.68;;;;;;;;;;6193045;28;20120;-79
2022/04/13 01:51:35;;;;;;;8.70;4.60;;;;;;;;;;6194142;28;20058;-79
2022/04/13 01:54:39;;;;;;;9.07;4.53;;;;;;;;;;6193360;28;20047;-79
2022/04/13 01:57:42;;;;;;;7.95;4.63;;;;;;;;;;6193232;28;20057;-79
2022/04/13 02:00:45;;;;;;;9.20;4.97;;;;;;;;;;6193461;28;20046;-79
2022/04/13 02:03:50;;;;;;;10.07;5.20;;;;;;;;;;6193655;28;20054;-79
2022/04/13 02:06:53;;;;;;;8.15;4.55;;;;;;;;;;6192205;28;20056;-79
2022/04/13 02:09:58;;;;;;;10.48;4.53;;;;;;;;;;6191567;28;20046;-80
2022/04/13 02:13:01;;;;;;;8.48;4.63;;;;;;;;;;6192861;28;20038;-79
2022/04/13 02:16:08;;;;;;;8.52;4.53;;;;;;;;;;6191925;28;20412;-79
2022/04/13 02:19:12;;;;;;;8.80;4.63;;;;;;;;;;6192697;28;20057;-79
2022/04/13 02:22:15;;;;;;;8.20;4.55;;;;;;;;;;6193927;28;20038;-80
2022/04/13 02:25:41;;;;;;;10.93;4.97;;;;;;;;;;6192103;28;20050;-79
2022/04/13 02:28:44;;;;;;;10.68;5.25;;;;;;;;;;6191768;28;20046;-80
2022/04/13 02:31:47;;;;;;;9.32;5.13;;;;;;;;;;6195887;28;20050;-79
2022/04/13 02:34:50;;;;;;;10.02;4.90;;;;;;;;;;6198374;28;20092;-79
2022/04/13 02:37:53;;;;;;;9.45;4.45;;;;;;;;;;6197084;28;20054;-79
2022/04/13 02:40:57;;;;;;;9.05;4.55;;;;;;;;;;6196393;28;20044;-79
2022/04/13 02:44:00;;;;;;;7.80;4.60;;;;;;;;;;6198281;28;20062;-79
2022/04/13 02:47:03;;;;;;;9.23;4.95;;;;;;;;;;6197951;28;20050;-80
2022/04/13 02:50:07;;;;;;;9.80;4.97;;;;;;;;;;6197798;28;20046;-80
2022/04/13 02:53:10;;;;;;;8.40;5.30;;;;;;;;;;6196147;28;20507;-80
2022/04/13 02:56:14;;;;;;;9.88;5.03;;;;;;;;;;6198128;28;20050;-80
2022/04/13 02:59:17;;;;;;;12.18;4.95;;;;;;;;;;6197285;28;20057;-80
2022/04/13 03:02:20;;;;;;;8.82;5.13;;;;;;;;;;6195926;28;20074;-80
2022/04/13 03:05:23;;;;;;;9.52;4.78;;;;;;;;;;6196413;28;20042;-80
2022/04/13 03:08:26;;;;;;;7.65;4.72;;;;;;;;;;6197605;28;20054;-78
2022/04/13 03:11:31;;;;;;;8.10;4.65;;;;;;;;;;6197104;28;20520;-78
2022/04/13 03:14:34;;;;;;;11.40;5.28;;;;;;;;;;6195678;28;20055;-78
2022/04/13 03:17:37;;;;;;;10.82;4.85;;;;;;;;;;6196185;28;20511;-79
2022/04/13 03:20:40;;;;;;;8.98;5.03;;;;;;;;;;6196908;28;20038;-80
2022/04/13 03:23:43;;;;;;;9.57;5.35;;;;;;;;;;6196493;28;20051;-79
2022/04/13 03:26:49;;;;;;;9.02;4.88;;;;;;;;;;6198124;28;20047;-79
2022/04/13 03:29:52;;;;;;;9.65;4.82;;;;;;;;;;6197035;28;20514;-80
2022/04/13 03:32:55;;;;;;;7.38;4.35;;;;;;;;;;6196529;28;20122;-78
2022/04/13 03:36:01;;;;;;;10.70;5.10;;;;;;;;;;6196816;28;20381;-80
2022/04/13 03:39:04;;;;;;;8.05;4.88;;;;;;;;;;6197383;28;20073;-80
2022/04/13 03:42:09;;;;;;;10.48;5.18;;;;;;;;;;6196538;28;20042;-80
2022/04/13 03:45:12;;;;;;;12.07;4.63;;;;;;;;;;6196116;28;20046;-79
2022/04/13 03:48:15;;;;;;;7.57;4.85;;;;;;;;;;6197372;28;20497;-79
2022/04/13 03:51:18;;;;;;;14.23;4.90;;;;;;;;;;6196380;28;20125;-78
2022/04/13 03:54:21;;;;;;;8.50;5.20;;;;;;;;;;6194897;28;20425;-80
2022/04/13 03:57:26;;;;;;;8.70;4.82;;;;;;;;;;6196718;28;20404;-80
2022/04/13 04:00:30;;;;;;;11.43;5.03;;;;;;;;;;6196958;28;20050;-81
2022/04/13 04:03:34;;;;;;;11.45;4.93;;;;;;;;;;6195966;28;20050;-78
2022/04/13 04:06:39;;;;;;;10.30;5.20;;;;;;;;;;6195858;28;20066;-80
2022/04/13 04:09:42;;;;;;;8.98;4.80;;;;;;;;;;6197313;28;20046;-81
2022/04/13 04:12:47;;;;;;;10.60;5.00;;;;;;;;;;6194574;28;20054;-79
2022/04/13 04:15:49;;;;;;;9.75;5.15;;;;;;;;;;6195184;28;20059;-80
2022/04/13 04:18:53;;;;;;;8.48;4.80;;;;;;;;;;6196175;28;20500;-78
2022/04/13 04:21:56;;;;;;;10.20;4.97;;;;;;;;;;6195687;28;20042;-79
2022/04/13 04:25:02;;;;;;;;;;;;;;;;;;6195998;28;20050;-78
2022/04/13 04:28:09;;;;;;;12.38;5.38;;;;;;;;;;6195697;28;19933;-78
2022/04/13 04:31:12;;;;;;;12.18;6.03;;;;;;;;;;6196108;28;20097;-78
2022/04/13 04:34:15;;;;;;;10.88;5.97;;;;;;;;;;6195208;28;20061;-78
2022/04/13 04:37:18;;;;;;;10.90;6.07;;;;;;;;;;6194945;28;20042;-78
2022/04/13 04:40:21;;;;;;;12.63;5.43;;;;;;;;;;6195588;28;20046;-78
2022/04/13 04:43:26;;;;;;;10.25;5.80;;;;;;;;;;6193955;28;20042;-81
2022/04/13 04:46:28;;;;;;;9.98;5.72;;;;;;;;;;6193412;28;20052;-81
2022/04/13 04:49:32;;;;;;;12.45;6.40;;;;;;;;;;6194241;28;20045;-79
2022/04/13 04:52:34;;;;;;;12.38;5.57;;;;;;;;;;6193345;28;20145;-78
2022/04/13 04:55:38;;;;;;;10.57;5.70;;;;;;;;;;6194695;28;20046;-80
2022/04/13 04:58:42;;;;;;;11.18;5.60;;;;;;;;;;6194822;28;20052;-78
2022/04/13 05:01:45;;;;;;;9.73;4.90;;;;;;;;;;6194314;28;20054;-77
2022/04/13 05:04:48;;;;;;;10.35;6.00;;;;;;;;;;6193439;28;20404;-78
2022/04/13 05:07:51;;;;;;;12.13;5.35;;;;;;;;;;6194388;28;20405;-78
2022/04/13 05:10:53;;;;;;;10.07;5.30;;;;;;;;;;6193641;28;20402;-80
2022/04/13 05:14:00;;;;;;;9.70;5.30;;;;;;;;;;6193576;28;20061;-79
2022/04/13 05:17:03;;;;;;;10.20;5.43;;;;;;;;;;6194682;28;20046;-80
2022/04/13 05:20:08;;;;;;;11.93;5.72;;;;;;;;;;6194620;28;20049;-80
2022/04/13 05:23:11;;;;;;;10.48;5.43;;;;;;;;;;6195042;28;20594;-78
2022/04/13 05:26:18;;;;;;;7.95;4.70;;;;;;;;;;6194462;28;20402;-78
2022/04/13 05:29:22;;;;;;;10.02;5.45;;;;;;;;;;6193766;28;20042;-80
2022/04/13 05:32:25;;;;;;;10.30;5.68;;;;;;;;;;6194711;28;20705;-77
2022/04/13 05:35:28;;;;;;;8.38;5.13;;;;;;;;;;6194039;28;20412;-77
2022/04/13 05:38:31;;;;;;;14.38;5.60;;;;;;;;;;6192601;28;20049;-77
2022/04/13 05:41:35;;;;;;;9.80;5.28;;;;;;;;;;6193858;28;20057;-77
2022/04/13 05:44:39;;;;;;;12.20;5.55;;;;;;;;;;6194476;28;20333;-77
2022/04/13 05:47:43;;;;;;;11.50;5.18;;;;;;;;;;6193647;28;20042;-78
2022/04/13 05:50:46;;;;;;;12.88;6.07;;;;;;;;;;6193438;28;20047;-80
2022/04/13 05:53:51;;;;;;;10.02;6.13;;;;;;;;;;6194180;28;20125;-77
2022/04/13 05:56:54;;;;;;;12.68;6.10;;;;;;;;;;6192483;28;20058;-80
2022/04/13 05:59:58;;;;;;;8.32;5.45;;;;;;;;;;6193251;28;20051;-78
2022/04/13 06:03:02;;;;;;;13.43;5.90;;;;;;;;;;6193881;28;20446;-78
2022/04/13 06:06:15;;;;;;;11.90;5.90;;;;;;;;;;6191740;28;20120;-79
2022/04/13 06:09:18;;;;;;;12.07;6.47;;;;;;;;;;6193385;28;20046;-80
2022/04/13 06:12:22;;;;;;;11.98;6.45;;;;;;;;;;6192945;28;20050;-80
2022/04/13 06:15:28;;;;;;;11.98;6.45;;;;;;;;;;6193644;28;20050;-81
2022/04/13 06:18:31;;;;;;;12.65;6.55;;;;;;;;;;6193542;28;20544;-80
2022/04/13 06:21:34;;;;;;;11.82;6.20;;;;;;;;;;6193290;28;20054;-79
2022/04/13 06:24:37;;;;;;;15.18;6.85;;;;;;;;;;6192214;28;20137;-79
2022/04/13 06:27:40;;;;;;;14.77;5.97;;;;;;;;;;6193185;28;20050;-80
2022/04/13 06:30:47;;;;;;;12.48;6.10;;;;;;;;;;6193989;28;20035;-79
2022/04/13 06:33:52;;;;;;;12.02;5.90;;;;;;;;;;6191564;28;20073;-79
2022/04/13 06:36:54;;;;;;;9.65;5.78;;;;;;;;;;6194021;28;20189;-78
2022/04/13 06:39:57;;;;;;;10.00;5.45;;;;;;;;;;6193164;28;20050;-77
2022/04/13 06:43:00;;;;;;;12.98;6.55;;;;;;;;;;6193271;28;20125;-77
2022/04/13 06:46:06;;;;;;;18.58;6.18;;;;;;;;;;6193231;28;20050;-79
2022/04/13 06:49:08;;;;;;;11.98;5.68;;;;;;;;;;6193159;28;20046;-79
2022/04/13 06:52:12;;;;;;;11.90;5.45;;;;;;;;;;6191460;28;20053;-79
2022/04/13 06:55:15;;;;;;;12.40;6.10;;;;;;;;;;6192824;28;20436;-79
2022/04/13 06:58:19;;;;;;;12.85;5.78;;;;;;;;;;6193457;28;20042;-78
2022/04/13 07:01:23;;;;;;;15.80;5.60;;;;;;;;;;6192648;28;20043;-79
2022/04/13 07:04:26;;;;;;;13.23;6.38;;;;;;;;;;6190943;28;20120;-79
2022/04/13 07:07:30;;;;;;;10.98;6.03;;;;;;;;;;6191768;28;20066;-78
2022/04/13 07:10:33;;;;;;;15.00;6.57;;;;;;;;;;6191541;28;20055;-78
2022/04/13 07:13:42;;;;;;;10.05;6.10;;;;;;;;;;6192406;28;20054;-77
2022/04/13 07:16:46;;;;;;;13.23;6.93;;;;;;;;;;6195506;28;20043;-79
2022/04/13 07:19:49;;;;;;;11.50;6.25;;;;;;;;;;6197853;28;20077;-78
2022/04/13 07:22:53;;;;;;;15.68;6.75;;;;;;;;;;6195532;28;20061;-79
2022/04/13 07:25:56;;;;;;;11.45;6.57;;;;;;;;;;6196837;28;20057;-76
2022/04/13 07:28:59;;;;;;;12.57;6.65;;;;;;;;;;6196232;28;20054;-78
2022/04/13 07:32:04;;;;;;;12.95;6.82;;;;;;;;;;6197006;28;20043;-77
2022/04/13 07:35:07;;;;;;;13.90;7.03;;;;;;;;;;6196534;28;20054;-78
2022/04/13 07:38:10;;;;;;;12.38;6.93;;;;;;;;;;6197307;28;20073;-77
2022/04/13 07:41:13;;;;;;;11.93;6.10;;;;;;;;;;6197254;28;20042;-77
2022/04/13 07:44:18;;;;;;;12.32;6.57;;;;;;;;;;6196400;28;20515;-78
2022/04/13 07:47:22;;;;;;;14.73;6.38;;;;;;;;;;6194907;28;20043;-78
2022/04/13 07:50:25;;;;;;;9.98;6.70;;;;;;;;;;6197087;28;20408;-77
2022/04/13 07:53:29;;;;;;;11.98;7.10;;;;;;;;;;6196441;28;20077;-77
2022/04/13 07:56:32;;;;;;;14.35;7.28;;;;;;;;;;6196175;28;20477;-78
2022/04/13 07:59:35;;;;;;;15.60;8.00;;;;;;;;;;6196673;28;20050;-77
2022/04/13 08:02:40;;;;;;;15.52;8.23;;;;;;;;;;6195272;28;20046;-81
2022/04/13 08:05:43;;;;;;;13.82;8.00;;;;;;;;;;6196116;28;20053;-82
2022/04/13 08:08:46;;;;;;;17.80;7.97;;;;;;;;;;6195898;28;20404;-79
2022/04/13 08:11:52;;;;;;;15.90;8.15;;;;;;;;;;6196450;28;20054;-80
2022/04/13 08:14:55;;;;;;;11.80;7.50;;;;;;;;;;6194419;28;20050;-80
2022/04/13 08:18:00;;;;;;;13.02;7.95;;;;;;;;;;6195229;28;20050;-80
2022/04/13 08:21:04;;;;;;;15.63;7.57;;;;;;;;;;6195113;28;20513;-82
2022/04/13 08:24:07;;;;;;;15.43;7.65;;;;;;;;;;6194804;28;20042;-81
2022/04/13 08:27:11;;;;;;;12.32;6.30;;;;;;;;;;6194579;28;20069;-81
2022/04/13 08:30:17;;;;;;;11.73;7.03;;;;;;;;;;6194405;28;20042;-80
2022/04/13 08:33:21;;;;;;;11.82;6.30;;;;;;;;;;6195990;28;20405;-80
2022/04/13 08:36:24;;;;;;;12.77;6.40;;;;;;;;;;6196076;28;20497;-90
2022/04/13 08:39:27;;;;;;;11.00;5.68;;;;;;;;;;6196133;28;20061;-83
2022/04/13 08:42:35;;;;;;;31.30;8.70;;;;;;;;;;6194665;28;20065;-84
2022/04/13 08:45:43;;;;;;;11.77;5.88;;;;;;;;;;6195975;28;20054;-81
2022/04/13 08:48:48;;;;;;;9.80;4.80;;;;;;;;;;6194634;28;20050;-79
2022/04/13 08:51:52;;;;;;;13.60;5.35;;;;;;;;;;6194800;28;20056;-79
2022/04/13 08:55:05;;;;;;;8.25;3.97;;;;;;;;;;6195463;28;20050;-77
2022/04/13 08:58:10;;;;;;;7.82;4.30;;;;;;;;;;6195233;28;20069;-81
2022/04/13 09:01:17;;;;;;;8.88;4.00;;;;;;;;;;6193390;28;20042;-82
2022/04/13 09:04:26;;;;;;;7.03;3.97;;;;;;;;;;6195825;28;20436;-82
2022/04/13 09:07:33;;;;;;;51.15;27.92;;;;;;;;;;6195041;28;20054;-81
2022/04/13 09:10:36;;;;;;;36.92;20.27;;;;;;;;;;6194488;28;20046;-80
2022/04/13 09:13:40;;;;;;;16.80;9.68;;;;;;;;;;6194698;28;20054;-82
2022/04/13 09:16:43;;;;;;;9.30;5.60;;;;;;;;;;6195149;28;20529;-82
2022/04/13 09:19:48;;;;;;;12.85;4.90;;;;;;;;;;6193003;28;20050;-80
2022/04/13 09:22:51;;;;;;;9.82;4.20;;;;;;;;;;6193978;28;20356;-81
2022/04/13 09:25:55;;;;;;;7.53;4.35;;;;;;;;;;6195226;28;20256;-82
2022/04/13 09:28:58;;;;;;;8.63;4.78;;;;;;;;;;6193411;28;20066;-81
2022/04/13 09:32:01;;;;;;;5.88;4.10;;;;;;;;;;6193181;28;20042;-82
2022/04/13 09:35:10;;;;;;;8.35;4.35;;;;;;;;;;6191147;28;20046;-81
2022/04/13 09:38:13;;;;;;;10.30;4.57;;;;;;;;;;6194524;28;20412;-81
2022/04/13 09:41:18;;;;;;;9.70;5.35;;;;;;;;;;6193892;28;20061;-80
2022/04/13 09:44:21;;;;;;;8.75;5.25;;;;;;;;;;6193410;28;20481;-79
2022/04/13 09:47:29;;;;;;;11.95;5.40;;;;;;;;;;6192936;28;20412;-85
2022/04/13 09:50:39;;;;;;;9.20;5.32;;;;;;;;;;6192490;28;20042;-80
2022/04/13 09:53:42;;;;;;;15.57;7.23;;;;;;;;;;6193131;28;20049;-84
2022/04/13 09:56:47;;;;;;;11.40;5.68;;;;;;;;;;6193655;28;20287;-80
2022/04/13 09:59:56;;;;;;;9.38;5.82;;;;;;;;;;6193578;28;20058;-82
2022/04/13 10:03:07;;;;;;;12.38;6.03;;;;;;;;;;6192825;28;20050;-80
2022/04/13 10:06:11;;;;;;;10.52;5.95;;;;;;;;;;6191293;28;20038;-80
2022/04/13 10:09:16;;;;;;;8.63;5.82;;;;;;;;;;6192097;28;20447;-80
2022/04/13 10:12:22;;;;;;;9.32;5.15;;;;;;;;;;6191826;28;20074;-78
2022/04/13 10:15:25;;;;;;;13.43;6.10;;;;;;;;;;6192715;28;20513;-81
2022/04/13 10:18:28;;;;;;;12.45;6.05;;;;;;;;;;6193426;28;20046;-77
2022/04/13 10:21:47;;;;;;;11.82;6.82;;;;;;;;;;6193918;28;20496;-77
2022/04/13 10:24:53;;;;;;;9.77;6.22;;;;;;;;;;6192152;28;20039;-80
2022/04/13 10:27:57;;;;;;;11.98;6.93;;;;;;;;;;6189889;28;20416;-83
2022/04/13 10:31:08;;;;;;;10.77;6.43;;;;;;;;;;6189183;28;20050;-84
2022/04/13 10:34:11;;;;;;;40.60;20.85;;;;;;;;;;6190580;28;20093;-82
2022/04/13 10:37:16;;;;;;;82.53;42.35;;;;;;;;;;6188147;28;20262;-82
2022/04/13 10:40:20;;;;;;;13.07;6.97;;;;;;;;;;6190130;28;20085;-82
2022/04/13 10:43:24;;;;;;;10.75;5.85;;;;;;;;;;6190539;28;20118;-82
2022/04/13 10:46:31;;;;;;;13.95;6.85;;;;;;;;;;6191240;28;20061;-86
2022/04/13 10:49:47;;;;;;;11.27;6.40;;;;;;;;;;6192720;28;20050;-85
2022/04/13 10:52:55;;;;;;;13.00;6.20;;;;;;;;;;6196359;28;20046;-86
2022/04/13 10:55:59;;;;;;;15.48;7.28;;;;;;;;;;6198170;28;20057;-84
2022/04/13 10:59:04;;;;;;;11.48;7.03;;;;;;;;;;6195685;28;20121;-84
2022/04/13 11:02:10;;;;;;;14.57;6.93;;;;;;;;;;6196357;28;20042;-85
2022/04/13 11:05:14;;;;;;;14.23;7.10;;;;;;;;;;6197931;28;20350;-85
2022/04/13 11:08:22;;;;;;;11.52;6.93;;;;;;;;;;6197178;28;20042;-85
2022/04/13 11:11:27;;;;;;;15.65;7.78;;;;;;;;;;6196459;28;20069;-79
2022/04/13 11:14:30;;;;;;;14.30;7.07;;;;;;;;;;6197362;28;20054;-77
2022/04/13 11:17:40;;;;;;;12.40;7.18;;;;;;;;;;6197298;28;20050;-81
2022/04/13 11:21:01;;;;;;;11.65;7.10;;;;;;;;;;6196506;28;20603;-76
2022/04/13 11:24:05;;;;;;;13.25;7.20;;;;;;;;;;6196539;28;20130;-78
2022/04/13 11:27:09;;;;;;;13.33;6.90;;;;;;;;;;6197281;28;20239;-77
2022/04/13 11:30:17;;;;;;;12.88;7.75;;;;;;;;;;6196582;28;20047;-84
2022/04/13 11:33:20;;;;;;;14.52;7.65;;;;;;;;;;6195914;28;20054;-82
2022/04/13 11:36:25;;;;;;;12.98;7.65;;;;;;;;;;6195434;28;20046;-84
2022/04/13 11:39:53;;;;;;;16.13;7.10;;;;;;;;;;6195860;28;20553;-85
2022/04/13 11:42:58;;;;;;;12.85;7.90;;;;;;;;;;6196127;28;20042;-87
2022/04/13 11:46:02;;;;;;;14.48;7.70;;;;;;;;;;6196174;28;20066;-87
2022/04/13 11:49:15;;;;;;;12.85;8.05;;;;;;;;;;6195639;28;20057;-85
2022/04/13 11:52:36;;;;;;;12.20;7.80;;;;;;;;;;6195787;28;20492;-87
2022/04/13 11:55:46;;;;;;;14.73;7.88;;;;;;;;;;6196073;28;20050;-88
2022/04/13 11:58:49;;;;;;;16.92;7.55;;;;;;;;;;6196583;28;20050;-87
2022/04/13 12:01:53;;;;;;;19.90;7.93;;;;;;;;;;6194340;28;20051;-87
2022/04/13 12:05:00;;;;;;;16.10;7.80;;;;;;;;;;6194435;28;20053;-87
2022/04/13 12:08:08;;;;;;;16.73;8.43;;;;;;;;;;6193856;28;20408;-84
2022/04/13 12:11:14;;;;;;;15.25;8.18;;;;;;;;;;6195325;28;20046;-83
2022/04/13 12:14:25;;;;;;;12.15;7.95;;;;;;;;;;6196437;28;20077;-84
2022/04/13 12:17:28;;;;;;;18.90;8.57;;;;;;;;;;6194351;28;20050;-82
2022/04/13 12:20:32;;;;;;;12.30;8.30;;;;;;;;;;6193971;28;20057;-82
2022/04/13 12:23:38;;;;;;;13.70;8.45;;;;;;;;;;6195327;28;20069;-82
2022/04/13 12:26:44;;;;;;;13.65;7.78;;;;;;;;;;6194112;28;20050;-82
2022/04/13 12:29:47;;;;;;;12.70;7.65;;;;;;;;;;6193325;28;20073;-82
2022/04/13 12:32:51;;;;;;;16.38;8.57;;;;;;;;;;6194915;28;20050;-85
2022/04/13 12:35:55;;;;;;;11.50;8.30;;;;;;;;;;6194403;28;20073;-83
2022/04/13 12:38:58;;;;;;;;;;;;;;;;;;6193683;28;20412;-84
2022/04/13 12:42:03;;;;;;;24.08;8.82;;;;;;;;;;6193403;28;19921;-81
2022/04/13 12:45:11;;;;;;;14.10;8.23;;;;;;;;;;6195352;28;20196;-82
2022/04/13 12:48:14;;;;;;;17.15;8.77;;;;;;;;;;6194221;28;20046;-81
2022/04/13 12:51:18;;;;;;;12.15;8.38;;;;;;;;;;6194524;28;20050;-81
2022/04/13 12:54:25;;;;;;;12.60;7.93;;;;;;;;;;6192721;28;20505;-81
2022/04/13 12:57:33;;;;;;;12.38;7.57;;;;;;;;;;6192751;28;20473;-80
2022/04/13 13:00:49;;;;;;;41.83;27.00;;;;;;;;;;6191879;28;20116;-85
2022/04/13 13:03:52;;;;;;;16.13;9.10;;;;;;;;;;6193183;28;20054;-86
2022/04/13 13:06:56;;;;;;;13.55;8.50;;;;;;;;;;6194851;28;20508;-90
2022/04/13 13:09:59;;;;;;;12.48;8.13;;;;;;;;;;6193471;28;20065;-87
2022/04/13 13:13:11;;;;;;;13.65;8.45;;;;;;;;;;6193385;28;20527;-86
2022/04/13 13:16:29;;;;;;;13.40;7.53;;;;;;;;;;6145418;29;20047;-85
2022/04/13 13:19:34;;;;;;;15.13;8.05;;;;;;;;;;6145877;29;20039;-85
2022/04/13 13:22:45;;;;;;;11.00;8.02;;;;;;;;;;6146470;28;20055;-85
2022/04/13 13:25:48;;;;;;;12.50;8.50;;;;;;;;;;6146076;28;20074;-85
2022/04/13 13:28:53;;;;;;;19.95;8.68;;;;;;;;;;6145370;29;20058;-85
2022/04/13 13:31:55;;;;;;;14.43;9.07;;;;;;;;;;6146356;28;20047;-87
2022/04/13 13:35:03;;;;;;;12.82;7.57;;;;;;;;;;6144227;29;20048;-87
2022/04/13 13:38:08;;;;;;;84.53;55.20;;;;;;;;;;6145119;29;20477;-89
2022/04/13 13:41:11;;;;;;;14.57;8.77;;;;;;;;;;6146339;28;20160;-90
2022/04/13 13:44:34;;;;;;;16.58;10.35;;;;;;;;;;6145829;28;20054;-88
2022/04/13 13:47:37;;;;;;;15.63;8.77;;;;;;;;;;6144738;29;20051;-91
2022/04/13 13:50:41;;;;;;;13.40;7.95;;;;;;;;;;6145931;28;20550;-89
2022/04/13 13:53:49;;;;;;;12.27;8.37;;;;;;;;;;6146275;28;20039;-89
2022/04/13 13:56:52;;;;;;;13.98;8.57;;;;;;;;;;6144138;29;20054;-88
2022/04/13 13:59:57;;;;;;;11.50;7.40;;;;;;;;;;6144652;29;20047;-88
2022/04/13 14:03:00;;;;;;;13.63;8.68;;;;;;;;;;6145516;29;20043;-88
2022/04/13 14:06:06;;;;;;;11.88;8.07;;;;;;;;;;6146755;28;20043;-89
2022/04/13 14:09:11;;;;;;;19.60;8.30;;;;;;;;;;6143674;29;20335;-86
2022/04/13 14:12:14;;;;;;;12.60;8.52;;;;;;;;;;6144982;29;20074;-89
2022/04/13 14:15:18;;;;;;;16.77;8.40;;;;;;;;;;6179809;28;20129;-89
2022/04/13 14:18:24;;;;;;;15.85;9.07;;;;;;;;;;6193022;28;20054;-89
2022/04/13 14:21:27;;;;;;;15.70;9.68;;;;;;;;;;6193467;28;20481;-88
2022/04/13 14:24:30;;;;;;;14.43;9.05;;;;;;;;;;6193802;28;20539;-85
2022/04/13 14:27:33;;;;;;;12.75;9.02;;;;;;;;;;6191535;28;20046;-87
2022/04/13 14:30:37;;;;;;;13.70;8.20;;;;;;;;;;6193074;28;20042;-90
2022/04/13 14:33:46;;;;;;;14.77;8.07;;;;;;;;;;6193818;28;20050;-87
2022/04/13 14:36:49;;;;;;;16.13;8.75;;;;;;;;;;6193636;28;20058;-86
2022/04/13 14:39:52;;;;;;;14.80;8.88;;;;;;;;;;6192623;28;20481;-86
2022/04/13 14:42:55;;;;;;;12.25;7.63;;;;;;;;;;6193106;28;20042;-87
2022/04/13 14:46:00;;;;;;;14.57;7.68;;;;;;;;;;6193807;28;20053;-84
2022/04/13 14:49:04;;;;;;;12.88;7.72;;;;;;;;;;6192696;28;20065;-87
2022/04/13 14:52:13;;;;;;;11.63;7.82;;;;;;;;;;6192159;28;20177;-88
2022/04/13 14:55:16;;;;;;;39.03;12.25;;;;;;;;;;6191206;28;20049;-86
2022/04/13 14:58:19;;;;;;;20.25;8.85;;;;;;;;;;6192611;28;20129;-88
2022/04/13 15:01:23;;;;;;;14.82;8.75;;;;;;;;;;6191610;28;20050;-86
2022/04/13 15:04:26;;;;;;;16.27;9.45;;;;;;;;;;6192282;28;20444;-86
2022/04/13 15:07:32;;;;;;;15.05;8.60;;;;;;;;;;6193260;28;20082;-88
2022/04/13 15:10:35;;;;;;;17.60;9.25;;;;;;;;;;6191020;28;20158;-88
2022/04/13 15:13:38;;;;;;;14.82;10.30;;;;;;;;;;6192753;28;20062;-88
2022/04/13 15:16:42;;;;;;;15.30;9.35;;;;;;;;;;6193538;28;20054;-86
2022/04/13 15:19:48;;;;;;;18.77;10.77;;;;;;;;;;6190761;28;20053;-86
2022/04/13 15:22:51;;;;;;;13.95;8.82;;;;;;;;;;6192389;28;20046;-87
2022/04/13 15:25:54;;;;;;;17.08;8.48;;;;;;;;;;6191473;28;20073;-88
2022/04/13 15:28:57;;;;;;;15.77;9.38;;;;;;;;;;6193268;28;20125;-85
2022/04/13 15:32:02;;;;;;;15.02;8.90;;;;;;;;;;6190617;28;20042;-87
2022/04/13 15:35:07;;;;;;;13.95;8.82;;;;;;;;;;6192319;28;20052;-85
2022/04/13 15:38:11;;;;;;;15.13;8.88;;;;;;;;;;6196290;28;20046;-85
2022/04/13 15:41:16;;;;;;;17.48;10.05;;;;;;;;;;6195148;28;20413;-86
2022/04/13 15:44:19;;;;;;;13.98;9.88;;;;;;;;;;6196386;28;20050;-86
2022/04/13 15:47:23;;;;;;;16.10;9.23;;;;;;;;;;6196916;28;20050;-88
2022/04/13 15:50:27;;;;;;;14.48;8.90;;;;;;;;;;6195490;28;20412;-87
2022/04/13 15:53:29;;;;;;;16.27;8.75;;;;;;;;;;6195536;28;20046;-87
2022/04/13 15:56:32;;;;;;;17.35;9.18;;;;;;;;;;6196208;28;20511;-86
2022/04/13 15:59:35;;;;;;;14.05;9.75;;;;;;;;;;6197006;28;20176;-86
2022/04/13 16:02:41;;;;;;;15.57;9.20;;;;;;;;;;6195695;28;20077;-86
2022/04/13 16:05:45;;;;;;;16.15;9.88;;;;;;;;;;6196303;28;20055;-86
2022/04/13 16:08:48;;;;;;;17.55;9.15;;;;;;;;;;6196442;28;20053;-85
2022/04/13 16:11:51;;;;;;;15.57;9.88;;;;;;;;;;6195038;28;20133;-84
2022/04/13 16:14:54;;;;;;;16.88;9.00;;;;;;;;;;6194463;28;20124;-85
2022/04/13 16:17:58;;;;;;;21.33;9.48;;;;;;;;;;6196386;28;20054;-86
2022/04/13 16:21:01;;;;;;;18.08;9.15;;;;;;;;;;6196350;28;20046;-85
2022/04/13 16:24:05;;;;;;;21.67;9.07;;;;;;;;;;6193931;28;20508;-81
2022/04/13 16:27:08;;;;;;;19.70;8.77;;;;;;;;;;6195182;28;20049;-81
2022/04/13 16:30:11;;;;;;;17.83;8.85;;;;;;;;;;6194645;28;20049;-81
2022/04/13 16:33:15;;;;;;;14.75;8.23;;;;;;;;;;6194807;28;20046;-81
2022/04/13 16:36:24;;;;;;;16.67;8.60;;;;;;;;;;6194937;28;20053;-82
2022/04/13 16:39:28;;;;;;;15.82;9.48;;;;;;;;;;6195572;28;20050;-81
2022/04/13 16:42:31;;;;;;;15.45;8.35;;;;;;;;;;6195568;28;20390;-84
2022/04/13 16:45:35;;;;;;;17.13;8.55;;;;;;;;;;6193339;28;20085;-86
2022/04/13 16:48:39;;;;;;;17.55;8.40;;;;;;;;;;6193415;28;20046;-82
2022/04/13 16:51:42;;;;;;;16.70;7.80;;;;;;;;;;6194295;28;20046;-84
2022/04/13 16:54:45;;;;;;;13.45;7.68;;;;;;;;;;6192976;28;20042;-81
2022/04/13 16:57:51;;;;;;;16.10;7.72;;;;;;;;;;6194337;28;20389;-81
2022/04/13 17:00:54;;;;;;;17.27;7.80;;;;;;;;;;6195016;28;20125;-87
2022/04/13 17:03:58;;;;;;;16.42;7.43;;;;;;;;;;6195158;28;20054;-83
2022/04/13 17:07:01;;;;;;;14.60;6.60;;;;;;;;;;6193898;28;20116;-86
2022/04/13 17:10:04;;;;;;;10.82;6.55;;;;;;;;;;6193277;28;20179;-85
2022/04/13 17:13:07;;;;;;;14.25;7.07;;;;;;;;;;6194650;28;20053;-82
2022/04/13 17:16:11;;;;;;;12.55;6.15;;;;;;;;;;6192606;28;20537;-82
2022/04/13 17:19:15;;;;;;;15.75;7.32;;;;;;;;;;6194018;28;20420;-80
2022/04/13 17:22:18;;;;;;;21.08;9.93;;;;;;;;;;6194518;28;20092;-85
2022/04/13 17:25:23;;;;;;;;;;;;;;;;;;6193583;28;20046;-86
2022/04/13 17:28:26;;;;;;;24.98;11.02;;;;;;;;;;6192482;28;20327;-85
2022/04/13 17:31:29;;;;;;;20.38;10.25;;;;;;;;;;6194778;28;20484;-86
2022/04/13 17:34:34;;;;;;;19.17;6.82;;;;;;;;;;6194356;28;20104;-82
2022/04/13 17:37:37;;;;;;;16.80;8.25;;;;;;;;;;6193692;28;20058;-84
2022/04/13 17:40:40;;;;;;;17.73;8.38;;;;;;;;;;6192305;28;20053;-84
2022/04/13 17:43:43;;;;;;;15.55;8.05;;;;;;;;;;6193610;28;20046;-83
2022/04/13 17:46:49;;;;;;;14.90;8.18;;;;;;;;;;6192206;28;20424;-85
2022/04/13 17:49:53;;;;;;;16.05;7.65;;;;;;;;;;6191311;28;20173;-83
2022/04/13 17:52:56;;;;;;;14.70;6.07;;;;;;;;;;6191774;28;20038;-86
2022/04/13 17:55:59;;;;;;;11.27;5.82;;;;;;;;;;6194063;28;20307;-86
2022/04/13 17:59:03;;;;;;;13.13;5.50;;;;;;;;;;6191836;28;20057;-86
2022/04/13 18:02:06;;;;;;;10.88;5.85;;;;;;;;;;6193771;28;20846;-86
2022/04/13 18:05:11;;;;;;;11.70;5.43;;;;;;;;;;6194102;28;20155;-87
2022/04/13 18:08:16;;;;;;;13.13;5.57;;;;;;;;;;6193181;28;20567;-89
2022/04/13 18:11:19;;;;;;;12.18;5.00;;;;;;;;;;6192437;28;20448;-90
2022/04/13 18:14:22;;;;;;;12.32;5.47;;;;;;;;;;6192035;28;20059;-78